Terminal Aerodrome Forecast
Issued by NWS

Home | Current Version | Previous Version | Text Only | Print | Product List | Glossary On
Versions: 1 2 3 4 5 6 7 8 9 10 11 12 13 14 15 16
000
FTUS44 KTSA 250520
TAFBVO
TAF
KBVO 250520Z 2506/2606 VRB03KT P6SM BKN050
     FM251000 VRB03KT P6SM -SHRA OVC050
     FM251600 34008KT P6SM -TSRA BKN040CB
      TEMPO 2516/2520 4SM TSRA BKN025CB
     FM260000 36005KT P6SM BKN250=

USA.gov is the U.S. government's official web portal to all federal, state and local government web resources and services.